sensor_id;sensor_type;location;lat;lon;timestamp;temperature;humidity
22224;DHT22;11281;52.194;21.006;2022-12-07T00:00:07;1.00;99.90
22224;DHT22;11281;52.194;21.006;2022-12-07T00:04:29;1.00;99.90
22224;DHT22;11281;52.194;21.006;2022-12-07T00:08:50;1.00;99.90
22224;DHT22;11281;52.194;21.006;2022-12-07T00:13:12;1.10;99.90
22224;DHT22;11281;52.194;21.006;2022-12-07T00:17:34;1.00;99.90
22224;DHT22;11281;52.194;21.006;2022-12-07T00:21:56;1.00;99.90
22224;DHT22;11281;52.194;21.006;2022-12-07T00:26:22;1.00;99.90
22224;DHT22;11281;52.194;21.006;2022-12-07T00:30:45;1.00;99.90
22224;DHT22;11281;52.194;21.006;2022-12-07T00:35:07;1.10;99.90
22224;DHT22;11281;52.194;21.006;2022-12-07T00:39:29;1.00;99.90
22224;DHT22;11281;52.194;21.006;2022-12-07T00:43:51;1.10;99.90
22224;DHT22;11281;52.194;21.006;2022-12-07T00:48:13;1.00;99.90
22224;DHT22;11281;52.194;21.006;2022-12-07T00:52:34;1.10;99.90
22224;DHT22;11281;52.194;21.006;2022-12-07T00:56:56;1.10;99.90
22224;DHT22;11281;52.194;21.006;2022-12-07T01:01:18;1.10;99.90
22224;DHT22;11281;52.194;21.006;2022-12-07T01:05:40;1.20;99.90
22224;DHT22;11281;52.194;21.006;2022-12-07T01:10:10;1.20;99.90
22224;DHT22;11281;52.194;21.006;2022-12-07T01:14:32;1.30;99.90
22224;DHT22;11281;52.194;21.006;2022-12-07T01:18:55;1.20;99.90
22224;DHT22;11281;52.194;21.006;2022-12-07T01:23:18;1.20;99.90
22224;DHT22;11281;52.194;21.006;2022-12-07T01:27:40;1.10;99.90
22224;DHT22;11281;52.194;21.006;2022-12-07T01:32:01;1.10;99.90
22224;DHT22;11281;52.194;21.006;2022-12-07T01:36:26;1.10;99.90
22224;DHT22;11281;52.194;21.006;2022-12-07T01:40:56;1.30;99.90
22224;DHT22;11281;52.194;21.006;2022-12-07T01:49:46;1.00;99.90
22224;DHT22;11281;52.194;21.006;2022-12-07T01:54:11;1.10;99.90
22224;DHT22;11281;52.194;21.006;2022-12-07T01:58:34;1.10;99.90
22224;DHT22;11281;52.194;21.006;2022-12-07T02:07:38;1.10;99.90
22224;DHT22;11281;52.194;21.006;2022-12-07T02:12:00;1.10;99.90
22224;DHT22;11281;52.194;21.006;2022-12-07T02:21:16;1.30;99.90
22224;DHT22;11281;52.194;21.006;2022-12-07T02:30:52;1.10;99.90
22224;DHT22;11281;52.194;21.006;2022-12-07T02:35:23;1.10;99.90
22224;DHT22;11281;52.194;21.006;2022-12-07T02:39:59;1.30;99.90
22224;DHT22;11281;52.194;21.006;2022-12-07T02:44:27;1.20;99.90
22224;DHT22;11281;52.194;21.006;2022-12-07T02:48:51;1.30;99.90
22224;DHT22;11281;52.194;21.006;2022-12-07T03:02:55;1.10;99.90
22224;DHT22;11281;52.194;21.006;2022-12-07T03:07:33;1.10;99.90
22224;DHT22;11281;52.194;21.006;2022-12-07T03:12:20;1.10;99.90
22224;DHT22;11281;52.194;21.006;2022-12-07T03:16:52;1.20;99.90
22224;DHT22;11281;52.194;21.006;2022-12-07T03:21:20;1.10;99.90
22224;DHT22;11281;52.194;21.006;2022-12-07T03:25:55;1.30;99.90
22224;DHT22;11281;52.194;21.006;2022-12-07T03:30:27;1.10;99.90
22224;DHT22;11281;52.194;21.006;2022-12-07T03:39:33;1.20;99.90
22224;DHT22;11281;52.194;21.006;2022-12-07T03:43:55;1.20;99.90
22224;DHT22;11281;52.194;21.006;2022-12-07T03:48:35;1.10;99.90
22224;DHT22;11281;52.194;21.006;2022-12-07T03:53:10;1.10;99.90
22224;DHT22;11281;52.194;21.006;2022-12-07T03:57:36;1.20;99.90
22224;DHT22;11281;52.194;21.006;2022-12-07T04:02:05;1.10;99.90
22224;DHT22;11281;52.194;21.006;2022-12-07T04:06:27;1.20;99.90
22224;DHT22;11281;52.194;21.006;2022-12-07T04:10:49;1.20;99.90
22224;DHT22;11281;52.194;21.006;2022-12-07T04:15:11;1.10;99.90
22224;DHT22;11281;52.194;21.006;2022-12-07T04:19:33;1.20;99.90
22224;DHT22;11281;52.194;21.006;2022-12-07T04:23:55;1.20;99.90
22224;DHT22;11281;52.194;21.006;2022-12-07T04:28:17;1.10;99.90
22224;DHT22;11281;52.194;21.006;2022-12-07T04:32:39;1.20;99.90
22224;DHT22;11281;52.194;21.006;2022-12-07T04:37:00;1.10;99.90
22224;DHT22;11281;52.194;21.006;2022-12-07T04:41:23;1.10;99.90
22224;DHT22;11281;52.194;21.006;2022-12-07T04:45:48;1.20;99.90
22224;DHT22;11281;52.194;21.006;2022-12-07T04:50:11;1.10;99.90
22224;DHT22;11281;52.194;21.006;2022-12-07T04:54:33;1.20;99.90
22224;DHT22;11281;52.194;21.006;2022-12-07T04:58:55;1.10;99.90
22224;DHT22;11281;52.194;21.006;2022-12-07T05:03:17;1.20;99.90
22224;DHT22;11281;52.194;21.006;2022-12-07T05:07:38;1.20;99.90
22224;DHT22;11281;52.194;21.006;2022-12-07T05:12:00;1.20;99.90
22224;DHT22;11281;52.194;21.006;2022-12-07T05:16:22;1.20;99.90
22224;DHT22;11281;52.194;21.006;2022-12-07T05:20:44;1.10;99.90
22224;DHT22;11281;52.194;21.006;2022-12-07T05:25:06;1.10;99.90
22224;DHT22;11281;52.194;21.006;2022-12-07T05:29:28;1.20;99.90
22224;DHT22;11281;52.194;21.006;2022-12-07T05:33:51;1.10;99.90
22224;DHT22;11281;52.194;21.006;2022-12-07T05:38:12;1.10;99.90
22224;DHT22;11281;52.194;21.006;2022-12-07T05:42:34;1.10;99.90
22224;DHT22;11281;52.194;21.006;2022-12-07T05:46:56;1.10;99.90
22224;DHT22;11281;52.194;21.006;2022-12-07T05:51:18;1.10;99.90
22224;DHT22;11281;52.194;21.006;2022-12-07T05:55:40;1.10;99.90
22224;DHT22;11281;52.194;21.006;2022-12-07T06:00:03;1.10;99.90
22224;DHT22;11281;52.194;21.006;2022-12-07T06:04:27;1.00;99.90
22224;DHT22;11281;52.194;21.006;2022-12-07T06:08:52;1.10;99.90
22224;DHT22;11281;52.194;21.006;2022-12-07T06:13:13;1.10;99.90
22224;DHT22;11281;52.194;21.006;2022-12-07T06:17:36;1.00;99.90
22224;DHT22;11281;52.194;21.006;2022-12-07T06:21:58;1.00;99.90
22224;DHT22;11281;52.194;21.006;2022-12-07T06:26:20;1.10;99.90
22224;DHT22;11281;52.194;21.006;2022-12-07T06:30:42;1.10;99.90
22224;DHT22;11281;52.194;21.006;2022-12-07T06:35:04;1.00;99.90
22224;DHT22;11281;52.194;21.006;2022-12-07T06:39:27;1.10;99.90
22224;DHT22;11281;52.194;21.006;2022-12-07T06:43:50;1.10;99.90
22224;DHT22;11281;52.194;21.006;2022-12-07T06:48:11;1.10;99.90
22224;DHT22;11281;52.194;21.006;2022-12-07T06:52:33;1.00;99.90
22224;DHT22;11281;52.194;21.006;2022-12-07T06:56:55;1.00;99.90
22224;DHT22;11281;52.194;21.006;2022-12-07T07:01:18;1.00;99.90
22224;DHT22;11281;52.194;21.006;2022-12-07T07:05:41;1.10;99.90
22224;DHT22;11281;52.194;21.006;2022-12-07T07:10:03;1.00;99.90
22224;DHT22;11281;52.194;21.006;2022-12-07T07:14:26;1.00;99.90
22224;DHT22;11281;52.194;21.006;2022-12-07T07:18:47;1.00;99.90
22224;DHT22;11281;52.194;21.006;2022-12-07T07:23:09;1.00;99.90
22224;DHT22;11281;52.194;21.006;2022-12-07T07:27:31;1.00;99.90
22224;DHT22;11281;52.194;21.006;2022-12-07T07:31:53;1.00;99.90
22224;DHT22;11281;52.194;21.006;2022-12-07T07:36:14;1.10;99.90
22224;DHT22;11281;52.194;21.006;2022-12-07T07:40:36;1.10;99.90
22224;DHT22;11281;52.194;21.006;2022-12-07T07:44:58;1.00;99.90
22224;DHT22;11281;52.194;21.006;2022-12-07T07:49:20;1.10;99.90
22224;DHT22;11281;52.194;21.006;2022-12-07T07:53:41;1.10;99.90
22224;DHT22;11281;52.194;21.006;2022-12-07T07:58:03;1.10;99.90
22224;DHT22;11281;52.194;21.006;2022-12-07T08:02:25;1.10;99.90
22224;DHT22;11281;52.194;21.006;2022-12-07T08:06:46;1.10;99.90
22224;DHT22;11281;52.194;21.006;2022-12-07T08:11:09;1.10;99.90
22224;DHT22;11281;52.194;21.006;2022-12-07T08:15:31;1.10;99.90
22224;DHT22;11281;52.194;21.006;2022-12-07T08:19:52;1.20;99.90
22224;DHT22;11281;52.194;21.006;2022-12-07T08:24:14;1.20;99.90
22224;DHT22;11281;52.194;21.006;2022-12-07T08:28:37;1.20;99.90
22224;DHT22;11281;52.194;21.006;2022-12-07T08:32:59;1.30;99.90
22224;DHT22;11281;52.194;21.006;2022-12-07T08:37:20;1.20;99.90
22224;DHT22;11281;52.194;21.006;2022-12-07T08:41:42;1.30;99.90
22224;DHT22;11281;52.194;21.006;2022-12-07T08:46:17;1.20;99.90
22224;DHT22;11281;52.194;21.006;2022-12-07T08:51:01;1.40;99.90
22224;DHT22;11281;52.194;21.006;2022-12-07T08:55:23;1.40;99.90
22224;DHT22;11281;52.194;21.006;2022-12-07T08:59:46;1.50;99.90
22224;DHT22;11281;52.194;21.006;2022-12-07T09:04:07;1.60;99.90
22224;DHT22;11281;52.194;21.006;2022-12-07T09:08:34;1.60;99.90
22224;DHT22;11281;52.194;21.006;2022-12-07T09:12:58;1.70;99.90
22224;DHT22;11281;52.194;21.006;2022-12-07T09:17:22;1.80;99.90
22224;DHT22;11281;52.194;21.006;2022-12-07T09:21:44;1.90;99.90
22224;DHT22;11281;52.194;21.006;2022-12-07T09:26:06;1.80;99.90
22224;DHT22;11281;52.194;21.006;2022-12-07T09:30:28;1.90;99.90
22224;DHT22;11281;52.194;21.006;2022-12-07T09:34:50;2.10;99.90
22224;DHT22;11281;52.194;21.006;2022-12-07T09:39:12;2.00;99.90
22224;DHT22;11281;52.194;21.006;2022-12-07T09:43:35;2.10;99.90
22224;DHT22;11281;52.194;21.006;2022-12-07T09:47:58;2.20;99.90
22224;DHT22;11281;52.194;21.006;2022-12-07T09:52:26;2.20;99.90
22224;DHT22;11281;52.194;21.006;2022-12-07T09:56:49;2.20;99.90
22224;DHT22;11281;52.194;21.006;2022-12-07T10:01:17;2.20;99.90
22224;DHT22;11281;52.194;21.006;2022-12-07T10:05:43;2.40;99.90
22224;DHT22;11281;52.194;21.006;2022-12-07T10:10:17;2.30;99.90
22224;DHT22;11281;52.194;21.006;2022-12-07T10:15:01;2.30;99.90
22224;DHT22;11281;52.194;21.006;2022-12-07T10:19:30;2.30;99.90
22224;DHT22;11281;52.194;21.006;2022-12-07T10:24:05;2.30;99.90
22224;DHT22;11281;52.194;21.006;2022-12-07T10:28:36;2.40;99.90
22224;DHT22;11281;52.194;21.006;2022-12-07T10:32:57;2.30;99.90
22224;DHT22;11281;52.194;21.006;2022-12-07T10:37:20;2.30;99.90
22224;DHT22;11281;52.194;21.006;2022-12-07T10:41:57;2.30;99.90
22224;DHT22;11281;52.194;21.006;2022-12-07T10:46:52;2.20;99.90
22224;DHT22;11281;52.194;21.006;2022-12-07T11:01:25;2.30;99.90
22224;DHT22;11281;52.194;21.006;2022-12-07T11:11:00;2.40;99.90
22224;DHT22;11281;52.194;21.006;2022-12-07T11:15:42;2.50;99.90
22224;DHT22;11281;52.194;21.006;2022-12-07T11:20:33;2.40;99.90
22224;DHT22;11281;52.194;21.006;2022-12-07T11:45:10;2.60;99.90
22224;DHT22;11281;52.194;21.006;2022-12-07T11:54:34;2.50;99.90
22224;DHT22;11281;52.194;21.006;2022-12-07T11:59:02;2.70;99.90
22224;DHT22;11281;52.194;21.006;2022-12-07T12:03:35;2.60;99.90
22224;DHT22;11281;52.194;21.006;2022-12-07T12:08:22;2.60;99.90
22224;DHT22;11281;52.194;21.006;2022-12-07T12:22:40;2.90;99.90
22224;DHT22;11281;52.194;21.006;2022-12-07T12:27:09;3.00;99.90
22224;DHT22;11281;52.194;21.006;2022-12-07T12:31:39;3.00;99.90
22224;DHT22;11281;52.194;21.006;2022-12-07T12:36:25;3.00;99.90
22224;DHT22;11281;52.194;21.006;2022-12-07T12:40:57;2.90;99.90
22224;DHT22;11281;52.194;21.006;2022-12-07T12:45:26;2.90;99.90
22224;DHT22;11281;52.194;21.006;2022-12-07T12:50:45;2.90;99.90
22224;DHT22;11281;52.194;21.006;2022-12-07T13:03:58;2.90;99.90
22224;DHT22;11281;52.194;21.006;2022-12-07T13:08:24;2.80;99.90
22224;DHT22;11281;52.194;21.006;2022-12-07T13:21:57;2.70;99.90
22224;DHT22;11281;52.194;21.006;2022-12-07T13:26:21;2.70;99.90
22224;DHT22;11281;52.194;21.006;2022-12-07T13:30:50;2.70;99.90
22224;DHT22;11281;52.194;21.006;2022-12-07T13:35:34;2.60;99.90
22224;DHT22;11281;52.194;21.006;2022-12-07T13:39:59;2.60;99.90
22224;DHT22;11281;52.194;21.006;2022-12-07T13:44:24;2.50;99.90
22224;DHT22;11281;52.194;21.006;2022-12-07T13:48:49;2.50;99.90
22224;DHT22;11281;52.194;21.006;2022-12-07T13:53:13;2.40;99.90
22224;DHT22;11281;52.194;21.006;2022-12-07T13:57:36;2.40;99.90
22224;DHT22;11281;52.194;21.006;2022-12-07T14:01:57;2.40;99.90
22224;DHT22;11281;52.194;21.006;2022-12-07T14:06:23;2.40;99.90
22224;DHT22;11281;52.194;21.006;2022-12-07T14:15:20;2.30;99.90
22224;DHT22;11281;52.194;21.006;2022-12-07T14:19:50;2.20;99.90
22224;DHT22;11281;52.194;21.006;2022-12-07T14:24:19;2.20;99.90
22224;DHT22;11281;52.194;21.006;2022-12-07T14:28:43;2.20;99.90
22224;DHT22;11281;52.194;21.006;2022-12-07T14:33:05;2.10;99.90
22224;DHT22;11281;52.194;21.006;2022-12-07T14:37:29;2.10;99.90
22224;DHT22;11281;52.194;21.006;2022-12-07T14:41:51;1.90;99.90
22224;DHT22;11281;52.194;21.006;2022-12-07T14:46:13;1.90;99.90
22224;DHT22;11281;52.194;21.006;2022-12-07T14:50:37;1.80;99.90
22224;DHT22;11281;52.194;21.006;2022-12-07T14:55:00;1.80;99.90
22224;DHT22;11281;52.194;21.006;2022-12-07T14:59:22;1.80;99.90
22224;DHT22;11281;52.194;21.006;2022-12-07T15:03:44;1.70;99.90
22224;DHT22;11281;52.194;21.006;2022-12-07T15:08:06;1.60;99.90
22224;DHT22;11281;52.194;21.006;2022-12-07T15:12:28;1.50;99.90
22224;DHT22;11281;52.194;21.006;2022-12-07T15:16:49;1.40;99.90
22224;DHT22;11281;52.194;21.006;2022-12-07T15:21:15;1.20;99.90
22224;DHT22;11281;52.194;21.006;2022-12-07T15:25:40;1.10;99.90
22224;DHT22;11281;52.194;21.006;2022-12-07T15:30:03;1.10;99.90
22224;DHT22;11281;52.194;21.006;2022-12-07T15:34:26;1.10;99.90
22224;DHT22;11281;52.194;21.006;2022-12-07T15:38:49;1.10;99.90
22224;DHT22;11281;52.194;21.006;2022-12-07T15:43:11;1.10;99.90
22224;DHT22;11281;52.194;21.006;2022-12-07T15:47:52;1.10;99.90
22224;DHT22;11281;52.194;21.006;2022-12-07T15:52:16;1.10;99.90
22224;DHT22;11281;52.194;21.006;2022-12-07T15:56:38;1.20;99.90
22224;DHT22;11281;52.194;21.006;2022-12-07T16:00:59;1.20;99.90
22224;DHT22;11281;52.194;21.006;2022-12-07T16:05:21;1.30;99.90
22224;DHT22;11281;52.194;21.006;2022-12-07T16:09:44;1.30;99.90
22224;DHT22;11281;52.194;21.006;2022-12-07T16:14:06;1.30;99.90
22224;DHT22;11281;52.194;21.006;2022-12-07T16:18:28;1.30;99.90
22224;DHT22;11281;52.194;21.006;2022-12-07T16:22:51;1.40;99.90
22224;DHT22;11281;52.194;21.006;2022-12-07T16:27:14;1.40;99.90
22224;DHT22;11281;52.194;21.006;2022-12-07T16:31:36;1.40;99.90
22224;DHT22;11281;52.194;21.006;2022-12-07T16:35:58;1.50;99.90
22224;DHT22;11281;52.194;21.006;2022-12-07T16:40:20;1.50;99.90
22224;DHT22;11281;52.194;21.006;2022-12-07T16:44:42;1.50;99.90
22224;DHT22;11281;52.194;21.006;2022-12-07T16:49:04;1.50;99.90
22224;DHT22;11281;52.194;21.006;2022-12-07T16:53:26;1.60;99.90
22224;DHT22;11281;52.194;21.006;2022-12-07T16:57:48;1.60;99.90
22224;DHT22;11281;52.194;21.006;2022-12-07T17:02:11;1.70;99.90
22224;DHT22;11281;52.194;21.006;2022-12-07T17:06:33;1.70;99.90
22224;DHT22;11281;52.194;21.006;2022-12-07T17:10:55;1.70;99.90
22224;DHT22;11281;52.194;21.006;2022-12-07T17:15:17;1.70;99.90
22224;DHT22;11281;52.194;21.006;2022-12-07T17:19:41;1.70;99.90
22224;DHT22;11281;52.194;21.006;2022-12-07T17:24:06;1.70;99.90
22224;DHT22;11281;52.194;21.006;2022-12-07T17:28:28;1.70;99.90
22224;DHT22;11281;52.194;21.006;2022-12-07T17:32:51;1.80;99.90
22224;DHT22;11281;52.194;21.006;2022-12-07T17:37:13;1.80;99.90
22224;DHT22;11281;52.194;21.006;2022-12-07T17:41:35;1.90;99.90
22224;DHT22;11281;52.194;21.006;2022-12-07T17:46:24;1.90;99.90
22224;DHT22;11281;52.194;21.006;2022-12-07T17:50:46;1.90;99.90
22224;DHT22;11281;52.194;21.006;2022-12-07T17:55:26;1.90;99.90
22224;DHT22;11281;52.194;21.006;2022-12-07T17:59:47;1.90;99.90
22224;DHT22;11281;52.194;21.006;2022-12-07T18:04:10;1.60;99.90
22224;DHT22;11281;52.194;21.006;2022-12-07T18:08:34;1.40;99.90
22224;DHT22;11281;52.194;21.006;2022-12-07T18:12:57;1.30;99.90
22224;DHT22;11281;52.194;21.006;2022-12-07T18:17:38;1.40;99.90
22224;DHT22;11281;52.194;21.006;2022-12-07T18:22:00;1.40;99.90
22224;DHT22;11281;52.194;21.006;2022-12-07T18:26:23;1.40;99.90
22224;DHT22;11281;52.194;21.006;2022-12-07T18:30:46;1.40;99.90
22224;DHT22;11281;52.194;21.006;2022-12-07T18:35:11;1.40;99.90
22224;DHT22;11281;52.194;21.006;2022-12-07T18:39:33;1.40;99.90
22224;DHT22;11281;52.194;21.006;2022-12-07T18:43:55;1.50;99.90
22224;DHT22;11281;52.194;21.006;2022-12-07T18:48:18;1.50;99.90
22224;DHT22;11281;52.194;21.006;2022-12-07T18:52:40;1.60;99.90
22224;DHT22;11281;52.194;21.006;2022-12-07T18:57:02;1.60;99.90
22224;DHT22;11281;52.194;21.006;2022-12-07T19:01:24;1.60;99.90
22224;DHT22;11281;52.194;21.006;2022-12-07T19:05:46;1.60;99.90
22224;DHT22;11281;52.194;21.006;2022-12-07T19:10:08;1.60;99.90
22224;DHT22;11281;52.194;21.006;2022-12-07T19:14:35;1.60;99.90
22224;DHT22;11281;52.194;21.006;2022-12-07T19:18:57;1.70;99.90
22224;DHT22;11281;52.194;21.006;2022-12-07T19:23:19;1.60;99.90
22224;DHT22;11281;52.194;21.006;2022-12-07T19:27:40;1.60;99.90
22224;DHT22;11281;52.194;21.006;2022-12-07T19:32:03;1.60;99.90
22224;DHT22;11281;52.194;21.006;2022-12-07T19:36:25;1.60;99.90
22224;DHT22;11281;52.194;21.006;2022-12-07T19:40:47;1.60;99.90
22224;DHT22;11281;52.194;21.006;2022-12-07T19:45:09;1.60;99.90
22224;DHT22;11281;52.194;21.006;2022-12-07T19:49:33;1.60;99.90
22224;DHT22;11281;52.194;21.006;2022-12-07T19:53:57;1.60;99.90
22224;DHT22;11281;52.194;21.006;2022-12-07T19:58:19;1.50;99.90
22224;DHT22;11281;52.194;21.006;2022-12-07T20:02:41;1.50;99.90
22224;DHT22;11281;52.194;21.006;2022-12-07T20:07:03;1.40;99.90
22224;DHT22;11281;52.194;21.006;2022-12-07T20:11:25;1.40;99.90
22224;DHT22;11281;52.194;21.006;2022-12-07T20:16:05;1.40;99.90
22224;DHT22;11281;52.194;21.006;2022-12-07T20:20:27;1.50;99.90
22224;DHT22;11281;52.194;21.006;2022-12-07T20:24:49;1.40;99.90
22224;DHT22;11281;52.194;21.006;2022-12-07T20:29:12;1.40;99.90
22224;DHT22;11281;52.194;21.006;2022-12-07T20:33:36;1.40;99.90
22224;DHT22;11281;52.194;21.006;2022-12-07T20:37:58;1.20;99.90
22224;DHT22;11281;52.194;21.006;2022-12-07T20:42:20;1.10;99.90
22224;DHT22;11281;52.194;21.006;2022-12-07T20:46:57;1.00;99.90
22224;DHT22;11281;52.194;21.006;2022-12-07T20:51:19;1.00;99.90
22224;DHT22;11281;52.194;21.006;2022-12-07T20:55:41;1.00;99.90
22224;DHT22;11281;52.194;21.006;2022-12-07T21:00:05;1.00;99.90
22224;DHT22;11281;52.194;21.006;2022-12-07T21:04:28;1.00;99.90
22224;DHT22;11281;52.194;21.006;2022-12-07T21:08:51;1.00;99.90
22224;DHT22;11281;52.194;21.006;2022-12-07T21:13:15;1.00;99.90
22224;DHT22;11281;52.194;21.006;2022-12-07T21:17:37;0.80;99.90
22224;DHT22;11281;52.194;21.006;2022-12-07T21:21:58;0.70;99.90
22224;DHT22;11281;52.194;21.006;2022-12-07T21:26:22;0.50;99.90
22224;DHT22;11281;52.194;21.006;2022-12-07T21:30:44;0.50;99.90
22224;DHT22;11281;52.194;21.006;2022-12-07T21:35:06;0.30;99.90
22224;DHT22;11281;52.194;21.006;2022-12-07T21:39:28;0.20;99.90
22224;DHT22;11281;52.194;21.006;2022-12-07T21:43:50;0.20;99.90
22224;DHT22;11281;52.194;21.006;2022-12-07T21:48:15;0.10;99.90
22224;DHT22;11281;52.194;21.006;2022-12-07T21:52:37;0.20;99.90
22224;DHT22;11281;52.194;21.006;2022-12-07T21:56:58;0.20;99.90
22224;DHT22;11281;52.194;21.006;2022-12-07T22:01:23;0.10;99.90
22224;DHT22;11281;52.194;21.006;2022-12-07T22:05:49;0.10;99.90
22224;DHT22;11281;52.194;21.006;2022-12-07T22:10:12;0.00;99.90
22224;DHT22;11281;52.194;21.006;2022-12-07T22:14:48;-0.10;99.90
22224;DHT22;11281;52.194;21.006;2022-12-07T22:19:27;-0.10;99.90
22224;DHT22;11281;52.194;21.006;2022-12-07T22:23:50;0.00;99.90
22224;DHT22;11281;52.194;21.006;2022-12-07T22:28:11;-0.10;99.90
22224;DHT22;11281;52.194;21.006;2022-12-07T22:32:33;0.00;99.90
22224;DHT22;11281;52.194;21.006;2022-12-07T22:36:55;0.10;99.90
22224;DHT22;11281;52.194;21.006;2022-12-07T22:41:24;0.00;99.90
22224;DHT22;11281;52.194;21.006;2022-12-07T22:45:55;-0.20;99.90
22224;DHT22;11281;52.194;21.006;2022-12-07T22:50:18;-0.20;99.90
22224;DHT22;11281;52.194;21.006;2022-12-07T22:54:39;-0.30;99.90
22224;DHT22;11281;52.194;21.006;2022-12-07T22:59:02;-0.40;99.90
22224;DHT22;11281;52.194;21.006;2022-12-07T23:03:25;-0.30;99.90
22224;DHT22;11281;52.194;21.006;2022-12-07T23:07:46;-0.10;99.90
22224;DHT22;11281;52.194;21.006;2022-12-07T23:12:08;0.10;99.90
22224;DHT22;11281;52.194;21.006;2022-12-07T23:16:51;0.10;99.90
22224;DHT22;11281;52.194;21.006;2022-12-07T23:21:13;0.20;99.90
22224;DHT22;11281;52.194;21.006;2022-12-07T23:25:35;0.30;99.90
22224;DHT22;11281;52.194;21.006;2022-12-07T23:29:56;0.30;99.90
22224;DHT22;11281;52.194;21.006;2022-12-07T23:34:18;0.40;99.90
22224;DHT22;11281;52.194;21.006;2022-12-07T23:38:42;0.40;99.90
22224;DHT22;11281;52.194;21.006;2022-12-07T23:43:05;0.40;99.90
22224;DHT22;11281;52.194;21.006;2022-12-07T23:47:26;0.50;99.90
22224;DHT22;11281;52.194;21.006;2022-12-07T23:51:48;0.50;99.90
22224;DHT22;11281;52.194;21.006;2022-12-07T23:56:18;0.50;99.90
